Time;durP1;ratioP1;P1;durP2;ratioP2;P2;SDS_P1;SDS_P2;PMS_P1;PMS_P2;Temp;Humidity;BMP_temperature;BMP_pressure;BME280_temperature;BME280_humidity;BME280_pressure;Samples;Min_cycle;Max_cycle;Signal;HPM_P1;HPM_P2
2022/11/28 00:01:40;;;;;;;5.28;3.67;;;3.70;99.90;;;;;;4976298;28;20050;-68
2022/11/28 00:04:07;;;;;;;7.03;3.72;;;3.80;99.90;;;;;;4992896;28;20147;-64
2022/11/28 00:06:40;;;;;;;7.05;3.35;;;3.80;99.90;;;;;;4993557;28;20052;-66
2022/11/28 00:09:07;;;;;;;4.70;2.88;;;3.90;99.90;;;;;;4993397;28;20084;-65
2022/11/28 00:11:34;;;;;;;5.00;2.92;;;3.90;99.90;;;;;;4995627;28;20330;-67
2022/11/28 00:14:01;;;;;;;4.03;2.22;;;3.90;99.90;;;;;;4994331;28;20052;-65
2022/11/28 00:16:28;;;;;;;4.50;3.03;;;3.90;99.90;;;;;;4977078;28;20041;-65
2022/11/28 00:18:55;;;;;;;4.38;2.47;;;3.90;99.90;;;;;;4993853;28;20049;-68
2022/11/28 00:21:21;;;;;;;;;;;3.90;99.90;;;;;;4994107;28;20427;-65
2022/11/28 00:23:49;;;;;;;4.10;2.00;;;3.90;99.90;;;;;;4987265;28;20031;-63
2022/11/28 00:26:39;;;;;;;4.68;2.55;;;3.90;99.90;;;;;;4995273;28;20041;-64
2022/11/28 00:29:07;;;;;;;3.80;1.20;;;4.00;99.90;;;;;;4994821;28;20261;-66
2022/11/28 00:31:40;;;;;;;3.17;1.55;;;4.00;99.90;;;;;;4995234;28;20041;-64
2022/11/28 00:34:10;;;;;;;1.60;1.50;;;4.00;99.90;;;;;;4979004;28;20046;-65
2022/11/28 00:36:37;;;;;;;3.97;1.48;;;4.10;99.90;;;;;;4991603;28;20652;-64
2022/11/28 00:39:04;;;;;;;;;;;4.10;99.90;;;;;;4995209;28;20543;-63
2022/11/28 00:41:35;;;;;;;3.83;2.30;;;4.10;99.90;;;;;;4994534;28;20134;-64
2022/11/28 00:44:01;;;;;;;4.15;2.28;;;4.10;99.90;;;;;;4993796;28;20444;-64
2022/11/28 00:46:29;;;;;;;2.58;1.60;;;4.10;99.90;;;;;;4994915;28;20061;-66
2022/11/28 00:48:57;;;;;;;6.38;1.98;;;4.20;99.90;;;;;;4994929;28;20053;-64
2022/11/28 00:51:27;;;;;;;2.47;1.50;;;4.10;99.90;;;;;;4991750;28;20038;-67
2022/11/28 00:53:56;;;;;;;7.85;1.85;;;4.10;99.90;;;;;;4993837;28;20390;-67
2022/11/28 00:56:27;;;;;;;4.10;1.65;;;4.10;99.90;;;;;;4995185;28;20468;-66
2022/11/28 00:58:53;;;;;;;2.92;1.65;;;4.10;99.90;;;;;;4993782;28;20042;-64
2022/11/28 01:01:46;;;;;;;2.03;1.45;;;4.20;99.90;;;;;;4996289;28;20351;-65
2022/11/28 01:04:16;;;;;;;2.10;1.60;;;4.20;99.90;;;;;;4989584;28;20188;-65
2022/11/28 01:06:48;;;;;;;2.38;1.58;;;4.20;99.90;;;;;;4993287;28;20125;-66
2022/11/28 01:09:19;;;;;;;3.35;1.25;;;4.20;99.90;;;;;;4985014;28;20050;-65
2022/11/28 01:11:50;;;;;;;1.80;1.38;;;4.20;99.90;;;;;;4992645;28;20432;-66
2022/11/28 01:14:19;;;;;;;3.05;1.23;;;4.20;99.90;;;;;;4994292;28;20045;-65
2022/11/28 01:16:46;;;;;;;3.65;1.55;;;4.20;99.90;;;;;;4990702;28;20274;-65
2022/11/28 01:19:13;;;;;;;;;;;4.20;99.90;;;;;;4994645;28;20422;-66
2022/11/28 01:21:41;;;;;;;2.85;1.38;;;4.20;99.90;;;;;;4995378;28;20051;-64
2022/11/28 01:24:08;;;;;;;2.40;1.65;;;4.20;99.90;;;;;;4990474;28;20161;-63
2022/11/28 01:26:37;;;;;;;2.30;1.63;;;4.20;99.90;;;;;;4994629;28;20436;-66
2022/11/28 01:29:04;;;;;;;3.97;2.03;;;4.20;99.90;;;;;;4991706;28;20081;-65
2022/11/28 01:31:31;;;;;;;3.42;2.08;;;4.20;99.90;;;;;;4990693;28;20237;-64
2022/11/28 01:33:58;;;;;;;4.97;1.80;;;4.20;99.90;;;;;;4992103;28;20554;-62
2022/11/28 01:36:26;;;;;;;3.55;1.88;;;4.10;99.90;;;;;;4989539;28;20547;-65
2022/11/28 01:38:53;;;;;;;2.13;1.75;;;4.10;99.90;;;;;;4995409;28;20048;-65
2022/11/28 01:41:22;;;;;;;5.53;2.22;;;4.10;99.90;;;;;;4993606;28;20045;-65
2022/11/28 01:44:15;;;;;;;4.47;2.20;;;4.00;99.90;;;;;;4992263;28;20362;-67
2022/11/28 01:46:42;;;;;;;4.05;2.05;;;4.00;99.90;;;;;;4968521;28;20517;-66
2022/11/28 01:49:14;;;;;;;3.15;2.20;;;4.00;99.90;;;;;;4993856;28;20284;-65
2022/11/28 01:51:46;;;;;;;5.38;1.85;;;4.00;99.90;;;;;;4996405;28;20088;-67
2022/11/28 01:54:17;;;;;;;3.42;2.00;;;3.90;99.90;;;;;;4992483;28;20041;-63
2022/11/28 01:56:50;;;;;;;4.57;2.05;;;3.90;99.90;;;;;;4991726;28;20080;-64
2022/11/28 01:59:19;;;;;;;2.63;1.80;;;3.90;99.90;;;;;;4993963;28;20365;-64
2022/11/28 02:01:45;;;;;;;3.30;1.70;;;3.80;99.90;;;;;;4972306;28;20563;-65
2022/11/28 02:04:13;;;;;;;3.42;1.60;;;3.80;99.90;;;;;;4992127;28;20111;-64
2022/11/28 02:06:41;;;;;;;2.38;1.45;;;3.70;99.90;;;;;;4993263;28;20072;-64
2022/11/28 02:09:12;;;;;;;2.03;1.55;;;3.70;99.90;;;;;;4992986;28;20489;-66
2022/11/28 02:12:08;;;;;;;2.97;1.58;;;3.60;99.90;;;;;;4994177;28;20128;-65
2022/11/28 02:15:20;;;;;;;2.83;1.42;;;3.60;99.90;;;;;;4993107;28;20054;-65
2022/11/28 02:18:12;;;;;;;3.50;1.00;;;3.60;99.90;;;;;;4993828;28;20131;-64
2022/11/28 02:21:01;;;;;;;1.52;1.00;;;3.60;99.90;;;;;;4994019;28;20144;-64
2022/11/28 02:24:01;;;;;;;1.58;1.42;;;3.60;99.90;;;;;;4994182;28;20095;-65
2022/11/28 02:27:06;;;;;;;2.40;1.27;;;3.60;99.90;;;;;;4988726;28;20431;-66
2022/11/28 02:29:33;;;;;;;1.73;1.30;;;3.60;99.90;;;;;;4990208;28;20515;-66
2022/11/28 02:32:37;;;;;;;2.05;1.02;;;3.60;99.90;;;;;;4992424;28;20057;-65
2022/11/28 02:35:21;;;;;;;1.50;1.10;;;3.60;99.90;;;;;;4992674;28;20163;-67
2022/11/28 02:38:22;;;;;;;2.20;1.52;;;3.60;99.90;;;;;;4990745;28;20492;-65
2022/11/28 02:41:06;;;;;;;2.53;1.55;;;3.60;99.90;;;;;;4991967;28;20130;-66
2022/11/28 02:43:36;;;;;;;2.50;1.20;;;3.60;99.90;;;;;;4992423;28;20866;-64
2022/11/28 02:46:13;;;;;;;1.92;1.15;;;3.60;99.90;;;;;;4992714;28;20514;-64
2022/11/28 02:49:06;;;;;;;2.67;1.20;;;3.60;99.90;;;;;;4991245;28;20550;-64
2022/11/28 02:51:42;;;;;;;1.00;0.90;;;3.70;99.90;;;;;;4991186;28;20511;-63
2022/11/28 02:54:13;;;;;;;2.88;1.33;;;3.70;99.90;;;;;;4993230;28;20326;-63
2022/11/28 02:56:48;;;;;;;1.67;1.10;;;3.60;99.90;;;;;;4989938;28;20574;-65
2022/11/28 02:59:37;;;;;;;0.90;0.70;;;3.70;99.90;;;;;;4974226;28;20048;-65
2022/11/28 03:02:27;;;;;;;1.55;0.98;;;3.70;99.90;;;;;;4991441;28;20256;-64
2022/11/28 03:05:34;;;;;;;1.45;0.98;;;3.70;99.90;;;;;;4990807;28;20037;-66
2022/11/28 03:08:30;;;;;;;1.02;0.82;;;3.70;99.90;;;;;;4990559;28;20547;-66
2022/11/28 03:11:20;;;;;;;4.50;1.02;;;3.70;99.90;;;;;;4992675;28;20049;-64
2022/11/28 03:13:56;;;;;;;2.38;1.00;;;3.70;99.90;;;;;;4991215;28;20169;-66
2022/11/28 03:16:28;;;;;;;2.17;0.90;;;3.70;99.90;;;;;;4992690;28;20096;-66
2022/11/28 03:18:58;;;;;;;2.45;0.85;;;3.70;99.90;;;;;;4988375;28;20415;-65
2022/11/28 03:21:40;;;;;;;1.83;1.10;;;3.60;99.90;;;;;;4992121;28;20736;-64
2022/11/28 03:24:19;;;;;;;2.15;1.45;;;3.70;99.90;;;;;;4992570;28;20080;-65
2022/11/28 03:26:51;;;;;;;1.73;0.93;;;3.70;99.90;;;;;;4993350;28;20423;-65
2022/11/28 03:29:44;;;;;;;1.08;0.63;;;3.70;99.90;;;;;;4995059;28;20271;-66
2022/11/28 03:32:26;;;;;;;1.15;0.93;;;3.70;99.90;;;;;;4991267;28;20358;-67
2022/11/28 03:35:03;;;;;;;2.20;1.10;;;3.80;99.90;;;;;;4989747;28;20049;-66
2022/11/28 03:37:32;;;;;;;;;;;3.80;99.90;;;;;;4993471;28;20048;-65
2022/11/28 03:40:04;;;;;;;1.35;0.85;;;3.80;99.90;;;;;;4994182;28;20016;-67
2022/11/28 03:42:37;;;;;;;0.73;0.73;;;3.80;99.90;;;;;;4995613;28;20482;-66
2022/11/28 03:45:12;;;;;;;2.25;0.90;;;3.80;99.90;;;;;;4999899;28;20927;-67
2022/11/28 03:47:53;;;;;;;1.60;0.90;;;3.80;99.90;;;;;;4975279;28;20883;-65
2022/11/28 03:50:26;;;;;;;3.80;1.27;;;3.80;99.90;;;;;;4987804;28;20606;-66
2022/11/28 03:53:02;;;;;;;4.18;1.10;;;3.80;99.90;;;;;;4996153;28;20224;-66
2022/11/28 03:55:40;;;;;;;1.98;1.02;;;3.90;99.90;;;;;;4994898;28;20454;-67
2022/11/28 03:58:12;;;;;;;0.85;0.80;;;3.90;99.90;;;;;;4995559;28;20054;-65
2022/11/28 04:01:01;;;;;;;1.30;0.85;;;3.90;99.90;;;;;;4996966;28;20046;-64
2022/11/28 04:03:53;;;;;;;0.70;0.70;;;3.90;99.90;;;;;;4996201;28;20598;-67
2022/11/28 04:06:26;;;;;;;2.15;1.25;;;4.00;99.90;;;;;;4996230;28;20141;-66
2022/11/28 04:09:18;;;;;;;0.50;0.50;;;4.00;99.90;;;;;;4996823;28;20056;-66
2022/11/28 04:11:58;;;;;;;1.00;0.77;;;4.00;99.90;;;;;;4995418;28;20132;-66
2022/11/28 04:14:33;;;;;;;0.80;0.50;;;4.10;99.90;;;;;;4994404;28;20103;-67
2022/11/28 04:17:11;;;;;;;1.08;0.80;;;4.10;99.90;;;;;;4994183;28;20049;-67
2022/11/28 04:19:48;;;;;;;1.00;0.50;;;4.10;99.90;;;;;;4994256;28;20044;-65
2022/11/28 04:22:33;;;;;;;4.55;0.80;;;4.20;99.90;;;;;;4996640;28;20124;-67
2022/11/28 04:25:05;;;;;;;3.03;0.63;;;4.20;99.90;;;;;;4994838;28;20134;-67
2022/11/28 04:27:56;;;;;;;1.48;0.98;;;4.20;99.90;;;;;;4995101;28;20056;-66
2022/11/28 04:30:23;;;;;;;3.00;1.10;;;4.20;99.90;;;;;;4977110;28;20562;-66
2022/11/28 04:32:52;;;;;;;;;;;4.30;99.90;;;;;;4998077;28;20688;-66
2022/11/28 04:35:25;;;;;;;1.40;0.60;;;4.30;99.90;;;;;;4993443;28;19931;-67
2022/11/28 04:37:54;;;;;;;3.20;0.65;;;4.30;99.90;;;;;;4993876;28;20666;-67
2022/11/28 04:40:23;;;;;;;0.68;0.68;;;4.30;99.90;;;;;;4994058;28;20041;-67
2022/11/28 04:42:57;;;;;;;0.70;0.70;;;4.40;99.90;;;;;;4995599;28;20199;-67
2022/11/28 04:45:34;;;;;;;1.00;0.73;;;4.40;99.90;;;;;;4994086;28;20034;-65
2022/11/28 04:48:02;;;;;;;;;;;4.40;99.90;;;;;;4995009;28;20045;-67
2022/11/28 04:50:54;;;;;;;0.60;0.57;;;4.50;99.90;;;;;;4993815;28;19925;-64
2022/11/28 04:53:33;;;;;;;0.77;0.70;;;4.50;99.90;;;;;;4994726;28;20543;-68
2022/11/28 04:56:06;;;;;;;1.58;0.77;;;4.60;99.90;;;;;;4992768;28;20046;-67
2022/11/28 04:58:38;;;;;;;1.23;0.68;;;4.60;99.90;;;;;;4991532;28;20042;-64
2022/11/28 05:01:09;;;;;;;0.95;0.77;;;4.60;99.90;;;;;;4995828;28;20148;-65
2022/11/28 05:03:37;;;;;;;0.95;0.77;;;4.70;99.90;;;;;;4994570;28;20850;-66
2022/11/28 05:06:08;;;;;;;1.02;0.55;;;4.60;99.90;;;;;;4994178;28;20037;-66
2022/11/28 05:08:35;;;;;;;1.45;0.70;;;4.70;99.90;;;;;;4977615;28;20049;-65
2022/11/28 05:11:02;;;;;;;;;;;4.60;99.90;;;;;;4996273;28;20131;-67
2022/11/28 05:13:28;;;;;;;0.50;0.50;;;4.60;99.90;;;;;;4991289;28;19936;-66
2022/11/28 05:15:59;;;;;;;1.13;0.82;;;4.60;99.90;;;;;;4990600;28;20069;-66
2022/11/28 05:18:26;;;;;;;0.70;0.65;;;4.60;99.90;;;;;;4995319;28;20121;-64
2022/11/28 05:20:52;;;;;;;1.45;0.82;;;4.60;99.90;;;;;;4992744;28;20045;-63
2022/11/28 05:23:19;;;;;;;;;;;4.60;99.90;;;;;;4994301;28;20502;-64
2022/11/28 05:25:46;;;;;;;0.85;0.68;;;4.60;99.90;;;;;;4993600;28;19926;-65
2022/11/28 05:28:12;;;;;;;1.33;0.98;;;4.60;99.90;;;;;;4992237;28;20049;-57
2022/11/28 05:30:39;;;;;;;2.22;0.93;;;4.60;99.90;;;;;;4992417;28;20162;-52
2022/11/28 05:33:06;;;;;;;;;;;4.60;99.90;;;;;;4993091;28;20046;-53
2022/11/28 05:35:32;;;;;;;1.25;0.80;;;4.60;99.90;;;;;;4992139;28;20253;-53
2022/11/28 05:37:59;;;;;;;1.98;0.95;;;4.60;99.90;;;;;;4993091;28;20050;-54
2022/11/28 05:40:26;;;;;;;;;;;4.60;99.90;;;;;;4988662;28;20986;-54
2022/11/28 05:42:53;;;;;;;2.85;1.40;;;4.70;99.90;;;;;;4991546;28;19932;-52
2022/11/28 05:45:19;;;;;;;2.13;1.13;;;4.70;99.90;;;;;;4989683;28;20109;-54
2022/11/28 05:47:46;;;;;;;2.70;1.02;;;4.70;99.90;;;;;;4993211;28;20121;-55
2022/11/28 05:50:13;;;;;;;;;;;4.70;99.90;;;;;;4983775;28;20041;-51
2022/11/28 05:52:40;;;;;;;3.03;1.00;;;4.70;99.90;;;;;;4990789;28;19926;-54
2022/11/28 05:55:07;;;;;;;1.83;0.90;;;4.80;99.90;;;;;;4994231;28;20104;-52
2022/11/28 05:57:34;;;;;;;3.22;1.00;;;4.80;99.90;;;;;;4995065;28;20038;-53
2022/11/28 06:00:00;;;;;;;;;;;4.80;99.90;;;;;;4994628;28;20072;-55
2022/11/28 06:02:37;;;;;;;1.30;1.02;;;4.80;99.90;;;;;;4977894;28;20420;-53
2022/11/28 06:05:04;;;;;;;1.35;1.00;;;4.80;99.90;;;;;;4992026;28;20651;-54
2022/11/28 06:07:51;;;;;;;0.80;0.80;;;4.80;99.90;;;;;;4993829;28;20037;-54
2022/11/28 06:10:18;;;;;;;;;;;4.80;99.90;;;;;;4992313;28;20649;-53
2022/11/28 06:12:44;;;;;;;1.50;1.00;;;4.80;99.90;;;;;;4993155;28;19925;-53
2022/11/28 06:15:11;;;;;;;;;;;4.90;99.90;;;;;;4994443;28;20051;-52
2022/11/28 06:17:38;;;;;;;1.77;1.00;;;4.90;99.90;;;;;;4991562;28;19925;-51
2022/11/28 06:20:06;;;;;;;;;;;5.00;99.90;;;;;;4977144;28;20049;-58
2022/11/28 06:22:33;;;;;;;0.90;0.68;;;5.00;99.90;;;;;;4992219;28;20108;-54
2022/11/28 06:25:00;;;;;;;1.13;1.02;;;5.00;99.90;;;;;;4991047;28;20037;-55
2022/11/28 06:27:27;;;;;;;;;;;5.00;99.90;;;;;;4990081;28;20050;-54
2022/11/28 06:29:54;;;;;;;1.33;1.23;;;5.00;99.90;;;;;;4990564;28;19925;-55
2022/11/28 06:32:21;;;;;;;5.68;1.30;;;5.00;99.90;;;;;;4994095;28;20250;-56
2022/11/28 06:34:48;;;;;;;2.60;1.70;;;5.00;99.90;;;;;;4991686;28;20049;-53
2022/11/28 06:37:14;;;;;;;1.52;1.30;;;5.00;99.90;;;;;;4992333;28;20229;-56
2022/11/28 06:39:41;;;;;;;;;;;4.90;99.90;;;;;;4994003;28;20054;-56
2022/11/28 06:42:08;;;;;;;0.88;0.88;;;4.90;99.90;;;;;;4973061;28;19931;-54
2022/11/28 06:44:35;;;;;;;1.88;0.90;;;4.90;99.90;;;;;;4990135;28;20405;-53
2022/11/28 06:47:02;;;;;;;1.77;1.13;;;4.90;99.90;;;;;;4990010;28;20323;-54
2022/11/28 06:49:28;;;;;;;1.75;1.10;;;4.90;99.90;;;;;;4992565;28;20371;-56
2022/11/28 06:51:55;;;;;;;;;;;4.90;99.90;;;;;;4977113;28;20588;-54
2022/11/28 06:54:22;;;;;;;1.25;1.02;;;4.80;99.90;;;;;;5000357;28;20036;-55
2022/11/28 06:56:48;;;;;;;1.50;1.10;;;4.90;99.90;;;;;;4994807;28;20521;-55
2022/11/28 06:59:15;;;;;;;9.18;1.45;;;4.80;99.90;;;;;;4990915;28;20051;-54
2022/11/28 07:01:42;;;;;;;1.88;1.00;;;4.80;99.90;;;;;;4990917;28;20077;-55
2022/11/28 07:04:09;;;;;;;2.05;1.20;;;4.80;99.90;;;;;;4989553;28;20045;-54
2022/11/28 07:06:35;;;;;;;;;;;4.70;99.90;;;;;;4989673;28;20057;-55
2022/11/28 07:09:02;;;;;;;1.55;1.23;;;4.70;99.90;;;;;;4992572;28;20289;-53
2022/11/28 07:11:30;;;;;;;;;;;4.70;99.90;;;;;;4992278;28;20431;-57
2022/11/28 07:13:59;;;;;;;2.40;1.20;;;4.70;99.90;;;;;;4995743;28;20395;-54
2022/11/28 07:16:29;;;;;;;1.48;1.38;;;4.70;99.90;;;;;;4977856;28;20046;-54
2022/11/28 07:18:57;;;;;;;1.05;0.93;;;4.60;99.90;;;;;;4994656;28;20567;-53
2022/11/28 07:21:26;;;;;;;4.05;1.35;;;4.60;99.90;;;;;;4995856;28;20457;-55
2022/11/28 07:23:52;;;;;;;1.70;1.00;;;4.60;99.90;;;;;;4997505;28;20057;-55
2022/11/28 07:26:20;;;;;;;1.55;1.35;;;4.60;99.90;;;;;;4997174;28;20084;-55
2022/11/28 07:28:49;;;;;;;3.08;0.95;;;4.60;99.90;;;;;;4997528;28;20042;-52
2022/11/28 07:31:21;;;;;;;2.80;1.50;;;4.60;99.90;;;;;;5000065;28;20055;-55
2022/11/28 07:33:50;;;;;;;3.47;1.42;;;4.60;99.90;;;;;;4992833;28;20064;-55
2022/11/28 07:36:22;;;;;;;3.97;1.60;;;4.50;99.90;;;;;;4995407;28;20548;-55
2022/11/28 07:38:51;;;;;;;7.88;1.63;;;4.60;99.90;;;;;;4995418;28;20123;-54
2022/11/28 07:41:19;;;;;;;1.60;1.05;;;4.60;99.90;;;;;;4995947;28;20096;-54
2022/11/28 07:43:55;;;;;;;1.70;1.17;;;4.50;99.90;;;;;;4993762;28;20040;-53
2022/11/28 07:46:22;;;;;;;1.92;1.20;;;4.60;99.90;;;;;;4977497;28;20044;-53
2022/11/28 07:48:49;;;;;;;3.25;1.42;;;4.60;99.90;;;;;;4994447;28;20046;-53
2022/11/28 07:51:19;;;;;;;2.78;1.40;;;4.60;99.90;;;;;;4992636;28;20077;-54
2022/11/28 07:53:46;;;;;;;1.02;0.95;;;4.60;99.90;;;;;;4993778;28;20037;-54
2022/11/28 07:56:16;;;;;;;2.55;1.60;;;4.70;99.90;;;;;;4997652;28;20583;-53
2022/11/28 07:58:44;;;;;;;1.38;1.15;;;4.70;99.90;;;;;;4994216;28;20271;-53
2022/11/28 08:01:14;;;;;;;1.95;1.63;;;4.70;99.90;;;;;;4996927;28;20149;-55
2022/11/28 08:03:41;;;;;;;5.18;1.63;;;4.70;99.90;;;;;;4995451;28;20112;-55
2022/11/28 08:06:08;;;;;;;2.50;1.30;;;4.80;99.90;;;;;;4996532;28;20258;-55
2022/11/28 08:08:35;;;;;;;2.95;1.38;;;5.00;99.90;;;;;;4996193;28;20602;-65
2022/11/28 08:11:04;;;;;;;1.55;1.17;;;5.00;99.90;;;;;;4978710;28;20490;-62
2022/11/28 08:13:32;;;;;;;1.83;1.33;;;5.10;99.90;;;;;;4994964;28;20607;-66
2022/11/28 08:16:06;;;;;;;2.97;1.33;;;5.10;99.90;;;;;;4993256;28;20050;-57
2022/11/28 08:18:34;;;;;;;2.03;1.02;;;5.10;99.90;;;;;;4994656;28;20072;-57
2022/11/28 08:21:04;;;;;;;2.58;1.38;;;5.10;99.90;;;;;;4989670;28;20125;-56
2022/11/28 08:23:33;;;;;;;1.48;1.13;;;5.10;99.90;;;;;;4994701;28;20069;-59
2022/11/28 08:26:01;;;;;;;2.47;1.33;;;5.20;99.90;;;;;;4995182;28;20046;-55
2022/11/28 08:28:28;;;;;;;1.05;0.80;;;5.20;99.90;;;;;;4992331;28;20308;-57
2022/11/28 08:30:55;;;;;;;1.67;1.38;;;5.20;99.90;;;;;;4996041;28;20033;-56
2022/11/28 08:33:23;;;;;;;2.58;1.50;;;5.30;99.90;;;;;;4993513;28;20562;-61
2022/11/28 08:35:53;;;;;;;3.90;1.10;;;5.30;99.90;;;;;;4991159;28;20365;-54
2022/11/28 08:38:20;;;;;;;1.60;1.33;;;5.40;99.90;;;;;;4995815;28;20451;-57
2022/11/28 08:40:46;;;;;;;1.98;1.10;;;5.40;99.90;;;;;;4994344;28;20051;-57
2022/11/28 08:43:13;;;;;;;1.85;1.17;;;5.40;99.90;;;;;;4995412;28;20478;-56
2022/11/28 08:45:40;;;;;;;2.70;1.55;;;5.50;99.90;;;;;;4994893;28;20091;-57
2022/11/28 08:48:06;;;;;;;;;;;5.50;99.90;;;;;;4994097;28;20050;-58
2022/11/28 08:50:33;;;;;;;2.47;1.55;;;5.60;99.90;;;;;;4990963;28;20307;-57
2022/11/28 08:53:00;;;;;;;3.00;2.03;;;5.60;99.90;;;;;;4993664;28;20550;-53
2022/11/28 08:55:33;;;;;;;2.63;1.90;;;5.70;99.90;;;;;;4976285;28;20058;-52
2022/11/28 08:58:07;;;;;;;3.53;1.88;;;5.70;99.90;;;;;;4993847;28;20497;-52
2022/11/28 09:00:34;;;;;;;3.65;2.33;;;5.80;99.90;;;;;;4995282;28;20116;-51
2022/11/28 09:03:01;;;;;;;4.82;2.03;;;5.90;99.90;;;;;;4993930;28;20037;-53
2022/11/28 09:05:28;;;;;;;4.32;1.90;;;6.00;99.90;;;;;;4992879;28;20456;-53
2022/11/28 09:07:56;;;;;;;3.75;2.10;;;6.00;99.90;;;;;;4979394;28;20403;-56
2022/11/28 09:10:24;;;;;;;2.53;2.03;;;6.10;99.90;;;;;;4976407;28;20140;-54
2022/11/28 09:12:51;;;;;;;3.55;1.77;;;6.20;99.90;;;;;;4990643;28;20045;-54
2022/11/28 09:15:18;;;;;;;2.78;2.33;;;6.30;99.90;;;;;;4992339;28;20042;-57
2022/11/28 09:17:45;;;;;;;;;;;6.40;99.90;;;;;;4984454;28;20096;-56
2022/11/28 09:20:12;;;;;;;3.88;2.72;;;6.50;99.90;;;;;;4994701;28;20504;-54
2022/11/28 09:22:41;;;;;;;2.90;1.90;;;6.60;99.90;;;;;;4994361;28;20374;-53
2022/11/28 09:25:08;;;;;;;5.65;2.58;;;6.70;99.90;;;;;;4990054;28;20046;-61
2022/11/28 09:27:35;;;;;;;3.45;1.80;;;6.80;99.90;;;;;;4995114;28;20621;-53
2022/11/28 09:30:01;;;;;;;6.30;2.20;;;6.80;99.90;;;;;;4994225;28;20060;-54
2022/11/28 09:32:28;;;;;;;;;;;6.90;99.90;;;;;;4995698;28;20130;-53
2022/11/28 09:34:55;;;;;;;4.68;2.22;;;7.00;99.90;;;;;;4993191;28;19924;-52
2022/11/28 09:37:21;;;;;;;;;;;7.00;99.90;;;;;;4995437;28;20493;-55
2022/11/28 09:39:49;;;;;;;5.05;2.65;;;7.10;99.90;;;;;;4995527;28;19987;-53
2022/11/28 09:42:43;;;;;;;4.70;2.30;;;7.10;99.90;;;;;;4991052;28;20858;-52
2022/11/28 09:45:20;;;;;;;4.75;2.50;;;7.20;99.90;;;;;;4975488;28;20073;-53
2022/11/28 09:47:51;;;;;;;2.50;2.22;;;7.30;99.90;;;;;;4992032;28;20455;-54
2022/11/28 09:50:22;;;;;;;4.50;2.70;;;7.30;99.90;;;;;;4994758;28;20053;-55
2022/11/28 09:53:14;;;;;;;5.85;2.85;;;7.40;99.90;;;;;;4991300;28;20068;-55
2022/11/28 09:55:43;;;;;;;6.05;2.78;;;7.40;99.90;;;;;;4993129;28;20049;-54
2022/11/28 09:58:25;;;;;;;5.63;2.50;;;7.50;99.90;;;;;;4995397;28;20052;-58
2022/11/28 10:01:18;;;;;;;4.28;2.63;;;7.50;99.90;;;;;;4994600;28;20065;-54
2022/11/28 10:04:03;;;;;;;7.70;3.20;;;7.50;99.90;;;;;;4994788;28;20042;-57
2022/11/28 10:06:38;;;;;;;5.55;2.70;;;7.60;99.90;;;;;;4991797;28;20353;-56
2022/11/28 10:09:20;;;;;;;5.38;3.30;;;7.70;99.90;;;;;;4992009;28;20104;-56
2022/11/28 10:12:11;;;;;;;6.88;3.17;;;7.70;99.90;;;;;;4990468;28;20798;-55
2022/11/28 10:14:53;;;;;;;4.68;2.45;;;7.80;99.90;;;;;;4988212;28;20050;-57
2022/11/28 10:17:44;;;;;;;5.95;2.85;;;7.90;99.90;;;;;;4991600;28;20116;-57
2022/11/28 10:20:22;;;;;;;5.30;2.55;;;7.90;99.90;;;;;;4994128;28;20052;-57
2022/11/28 10:23:14;;;;;;;6.82;3.25;;;8.00;99.90;;;;;;4973806;28;20120;-57
2022/11/28 10:25:49;;;;;;;6.65;3.47;;;8.10;99.90;;;;;;4992176;28;20192;-54
2022/11/28 10:28:36;;;;;;;5.13;3.42;;;8.10;99.90;;;;;;4993015;28;20160;-53
2022/11/28 10:31:24;;;;;;;6.85;4.03;;;8.20;99.90;;;;;;4991053;28;20547;-55
2022/11/28 10:34:06;;;;;;;8.75;4.72;;;8.40;99.90;;;;;;4974659;28;20115;-55
2022/11/28 10:36:54;;;;;;;9.43;5.18;;;8.40;99.90;;;;;;4994204;28;20042;-55
2022/11/28 10:39:24;;;;;;;10.07;4.88;;;8.50;99.90;;;;;;4994525;28;20048;-55
2022/11/28 10:42:12;;;;;;;6.03;4.47;;;8.60;99.90;;;;;;4991550;28;20152;-57
2022/11/28 10:44:57;;;;;;;6.60;3.67;;;8.70;99.90;;;;;;4992415;28;20567;-53
2022/11/28 10:47:52;;;;;;;7.28;4.03;;;8.80;99.90;;;;;;4993725;28;20104;-56
2022/11/28 10:50:36;;;;;;;8.02;4.38;;;8.90;99.90;;;;;;4985378;28;20077;-54
2022/11/28 10:53:24;;;;;;;8.05;3.55;;;8.90;99.90;;;;;;4992366;28;20982;-52
2022/11/28 10:56:07;;;;;;;;;;;9.00;99.90;;;;;;4992152;28;20535;-55
2022/11/28 10:58:53;;;;;;;8.82;3.90;;;9.10;99.90;;;;;;4992723;28;19931;-54
2022/11/28 11:01:20;;;;;;;7.60;3.95;;;9.10;99.90;;;;;;4996303;28;20747;-53
2022/11/28 11:03:48;;;;;;;5.97;3.53;;;9.20;99.90;;;;;;4990025;28;20103;-56
2022/11/28 11:06:15;;;;;;;7.95;3.40;;;9.30;99.90;;;;;;4991589;28;20685;-54
2022/11/28 11:08:44;;;;;;;8.63;4.00;;;9.30;99.90;;;;;;4991431;28;20821;-51
2022/11/28 11:11:37;;;;;;;6.15;3.83;;;9.30;99.90;;;;;;4993345;28;20052;-51
2022/11/28 11:14:07;;;;;;;5.10;3.03;;;9.40;99.90;;;;;;4989011;28;20125;-52
2022/11/28 11:16:47;;;;;;;5.18;3.42;;;9.40;99.90;;;;;;4991319;28;20052;-52
2022/11/28 11:19:32;;;;;;;4.75;3.10;;;9.40;99.90;;;;;;4994161;28;20105;-53
2022/11/28 11:22:20;;;;;;;10.60;3.53;;;9.50;99.90;;;;;;4992867;28;20052;-53
2022/11/28 11:25:12;;;;;;;7.05;4.15;;;9.50;99.90;;;;;;4990424;28;20069;-54
2022/11/28 11:27:48;;;;;;;5.63;3.60;;;9.50;99.90;;;;;;4991977;28;20313;-55
2022/11/28 11:30:28;;;;;;;11.47;4.10;;;9.50;99.90;;;;;;4994535;28;20077;-52
2022/11/28 11:32:57;;;;;;;6.88;3.70;;;9.50;99.90;;;;;;4993386;28;20056;-53
2022/11/28 11:35:35;;;;;;;10.02;3.53;;;9.50;99.90;;;;;;4992736;28;20046;-52
2022/11/28 11:38:14;;;;;;;6.85;3.78;;;9.50;99.90;;;;;;4994976;28;20145;-54
2022/11/28 11:40:41;;;;;;;6.22;3.78;;;9.60;99.90;;;;;;4990770;28;20071;-53
2022/11/28 11:43:31;;;;;;;9.25;2.95;;;9.50;99.90;;;;;;4989377;28;20073;-54
2022/11/28 11:46:09;;;;;;;8.82;3.83;;;9.60;99.90;;;;;;4993363;28;20740;-59
2022/11/28 11:48:40;;;;;;;8.70;3.25;;;9.60;99.90;;;;;;4977252;28;20124;-51
2022/11/28 11:51:31;;;;;;;10.35;4.05;;;9.60;99.90;;;;;;4993684;28;20054;-63
2022/11/28 11:54:15;;;;;;;7.18;3.35;;;9.70;99.90;;;;;;4991963;28;20069;-55
2022/11/28 11:56:44;;;;;;;9.30;3.53;;;9.70;99.90;;;;;;4991314;28;20053;-55
2022/11/28 11:59:20;;;;;;;7.13;4.00;;;9.70;99.90;;;;;;4991051;28;20049;-54
2022/11/28 12:01:51;;;;;;;7.10;3.90;;;9.80;99.90;;;;;;4994481;28;20128;-56
2022/11/28 12:04:33;;;;;;;6.57;3.83;;;9.80;99.90;;;;;;4995518;28;20066;-54
2022/11/28 12:07:29;;;;;;;7.18;3.33;;;9.80;99.90;;;;;;4994114;28;20042;-53
2022/11/28 12:09:57;;;;;;;5.43;3.17;;;9.80;99.90;;;;;;4996578;28;20049;-55
2022/11/28 12:12:34;;;;;;;5.85;3.45;;;9.80;99.90;;;;;;4995634;28;20069;-55
2022/11/28 12:15:01;;;;;;;3.88;2.63;;;9.80;99.90;;;;;;4995693;28;20128;-52
2022/11/28 12:17:56;;;;;;;4.65;2.47;;;9.80;99.90;;;;;;4994098;28;20085;-55
2022/11/28 12:20:49;;;;;;;4.00;2.38;;;9.80;99.90;;;;;;4996495;28;20348;-54
2022/11/28 12:23:39;;;;;;;4.70;1.83;;;9.80;99.90;;;;;;4994772;28;20583;-52
2022/11/28 12:26:15;;;;;;;4.10;1.67;;;9.80;99.90;;;;;;4995756;28;20065;-52
2022/11/28 12:29:36;;;;;;;3.15;1.88;;;9.70;99.90;;;;;;4996233;28;20041;-53
2022/11/28 12:32:23;;;;;;;3.47;1.60;;;9.80;99.90;;;;;;4899989;29;20130;-52
2022/11/28 12:34:50;;;;;;;2.63;1.85;;;9.70;99.90;;;;;;4990599;28;20083;-54
2022/11/28 12:37:28;;;;;;;3.70;1.45;;;9.80;99.90;;;;;;4974704;28;20061;-56
2022/11/28 12:40:36;;;;;;;2.97;1.02;;;9.70;99.90;;;;;;4978100;28;20586;-53
2022/11/28 12:43:41;;;;;;;1.98;1.13;;;9.70;99.90;;;;;;4975072;28;20470;-55
2022/11/28 12:46:33;;;;;;;3.20;1.35;;;9.80;99.90;;;;;;4979497;28;20641;-54
2022/11/28 12:49:08;;;;;;;4.22;1.52;;;9.80;99.90;;;;;;4991252;28;20339;-53
2022/11/28 12:52:13;;;;;;;4.68;1.45;;;9.80;99.90;;;;;;4977269;28;20152;-53
2022/11/28 12:54:57;;;;;;;2.00;1.50;;;9.80;99.90;;;;;;4994236;28;20041;-55
2022/11/28 12:57:38;;;;;;;4.30;1.73;;;9.90;99.90;;;;;;4997062;28;20064;-56
2022/11/28 13:00:17;;;;;;;3.63;1.45;;;9.90;99.90;;;;;;4995884;28;20738;-51
2022/11/28 13:03:03;;;;;;;5.13;1.38;;;9.90;99.90;;;;;;4993997;28;20929;-54
2022/11/28 13:05:53;;;;;;;3.22;0.63;;;9.90;99.90;;;;;;4993432;28;20247;-54
2022/11/28 13:08:32;;;;;;;2.80;1.50;;;9.90;99.90;;;;;;4995287;28;20515;-52
2022/11/28 13:11:17;;;;;;;3.22;1.05;;;9.90;99.90;;;;;;4991473;28;20142;-54
2022/11/28 13:14:10;;;;;;;5.72;1.35;;;9.90;99.90;;;;;;4992458;28;20053;-53
2022/11/28 13:16:45;;;;;;;2.85;1.20;;;9.90;99.90;;;;;;4994926;28;20611;-54
2022/11/28 13:19:26;;;;;;;2.13;1.20;;;9.90;99.90;;;;;;4994204;28;20712;-52
2022/11/28 13:21:53;;;;;;;1.65;1.00;;;9.90;99.90;;;;;;4994592;28;20268;-55
2022/11/28 13:24:26;;;;;;;2.60;1.63;;;9.90;99.90;;;;;;4991661;28;20049;-53
2022/11/28 13:27:05;;;;;;;3.33;1.48;;;9.90;99.90;;;;;;4993141;28;20307;-55
2022/11/28 13:30:05;;;;;;;4.35;1.23;;;9.90;99.90;;;;;;4995206;28;20048;-55
2022/11/28 13:32:42;;;;;;;3.35;1.67;;;9.80;99.90;;;;;;4960330;28;20041;-54
2022/11/28 13:35:18;;;;;;;3.97;2.30;;;9.80;99.90;;;;;;4992610;28;20158;-52
2022/11/28 13:38:06;;;;;;;4.97;2.20;;;9.80;99.90;;;;;;4992118;28;20053;-55
2022/11/28 13:41:12;;;;;;;4.32;1.95;;;9.80;99.90;;;;;;4992178;28;20424;-56
2022/11/28 13:44:45;;;;;;;5.72;1.88;;;9.70;99.90;;;;;;4992757;28;20386;-55